Time;durP1;ratioP1;P1;durP2;ratioP2;P2;SDS_P1;SDS_P2;PMS_P1;PMS_P2;Temp;Humidity;BMP_temperature;BMP_pressure;BME280_temperature;BME280_humidity;BME280_pressure;Samples;Min_cycle;Max_cycle;Signal;HPM_P1;HPM_P2
2023/02/15 00:00:33;;;;;;;;;83.67;79.33;;;;;10.70;50.34;102243.25;6333552;22;46802;-74
2023/02/15 00:02:59;;;;;;;;;83.67;71.00;;;;;10.68;50.39;102246.75;6310184;22;45141;-74
2023/02/15 00:05:25;;;;;;;;;85.00;77.00;;;;;10.62;50.52;102237.03;6310074;22;45206;-75
2023/02/15 00:07:50;;;;;;;;;85.00;74.33;;;;;10.61;50.53;102234.41;6333378;22;45377;-75
2023/02/15 00:10:17;;;;;;;;;84.00;74.00;;;;;10.60;50.52;102233.50;6309791;22;46323;-74
2023/02/15 00:12:42;;;;;;;;;84.67;72.00;;;;;10.57;50.37;102237.00;6309170;22;45253;-74
2023/02/15 00:15:08;;;;;;;;;84.00;73.67;;;;;10.52;50.55;102230.81;6309722;22;45333;-74
2023/02/15 00:17:33;;;;;;;;;83.67;71.33;;;;;10.53;50.46;102231.72;6309715;22;45310;-74
2023/02/15 00:19:58;;;;;;;;;85.33;76.67;;;;;10.47;50.47;102227.25;6309431;22;45859;-74
2023/02/15 00:22:25;;;;;;;;;89.00;76.67;;;;;10.46;50.31;102236.00;6310064;22;45264;-74
2023/02/15 00:24:50;;;;;;;;;82.00;73.33;;;;;10.44;50.21;102221.09;6309903;22;45097;-74
2023/02/15 00:27:15;;;;;;;;;91.33;81.67;;;;;10.40;50.62;102225.41;6309719;22;45137;-74
2023/02/15 00:29:41;;;;;;;;;89.67;77.67;;;;;10.36;50.81;102218.38;6309545;22;46616;-74
2023/02/15 00:32:06;;;;;;;;;93.67;84.33;;;;;10.31;50.82;102215.66;6309870;22;45070;-74
2023/02/15 00:34:32;;;;;;;;;88.67;77.33;;;;;10.26;50.71;102206.84;6309869;22;45216;-74
2023/02/15 00:36:57;;;;;;;;;88.33;78.33;;;;;10.23;50.64;102204.22;6309656;22;45372;-74
2023/02/15 00:39:24;;;;;;;;;85.33;80.00;;;;;10.22;50.72;102207.69;6309139;22;46051;-74
2023/02/15 00:41:49;;;;;;;;;96.33;87.00;;;;;10.14;50.76;102191.84;6307589;22;45183;-74
2023/02/15 00:44:15;;;;;;;;;88.33;79.67;;;;;10.08;50.77;102197.91;6307970;22;45394;-74
2023/02/15 00:46:40;;;;;;;;;85.67;74.33;;;;;10.04;50.74;102192.63;6309641;22;45290;-74
2023/02/15 00:49:05;;;;;;;;;88.33;77.00;;;;;10.08;50.86;102205.78;6309063;22;46189;-74
2023/02/15 00:51:31;;;;;;;;;84.33;69.33;;;;;10.09;50.66;102209.31;6309816;22;45275;-74
2023/02/15 00:53:57;;;;;;;;;82.33;71.33;;;;;10.05;50.71;102202.25;6307869;22;45274;-74
2023/02/15 00:56:22;;;;;;;;;88.00;78.00;;;;;10.04;50.80;102206.63;6306717;22;45253;-74
2023/02/15 00:58:48;;;;;;;;;90.33;80.67;;;;;10.02;50.99;102203.09;6334586;22;46297;-74
2023/02/15 01:01:16;;;;;;;;;85.00;76.33;;;;;10.00;50.65;102207.47;6310677;22;45267;-74
2023/02/15 01:03:42;;;;;;;;;89.00;78.00;;;;;9.96;50.86;102200.41;6310793;22;45281;-74
2023/02/15 01:06:08;;;;;;;;;84.67;69.67;;;;;9.94;50.63;102191.63;6310517;22;45464;-74
2023/02/15 01:08:34;;;;;;;;;90.33;81.00;;;;;9.95;50.89;102195.13;6333953;22;47140;-75
2023/02/15 01:11:10;;;;;;;;;93.33;84.00;;;;;9.93;50.84;102184.59;6310874;22;45207;-74
2023/02/15 01:13:36;;;;;;;;;87.33;77.00;;;;;9.87;50.91;102187.16;6311013;22;45263;-74
2023/02/15 01:16:03;;;;;;;;;86.00;72.67;;;;;9.90;50.80;102195.09;6310322;22;45204;-74
2023/02/15 01:18:28;;;;;;;;;87.67;73.00;;;;;9.87;51.00;102189.78;6310520;22;45310;-74
2023/02/15 01:20:54;;;;;;;;;96.00;82.67;;;;;9.85;50.83;102188.88;6310664;22;45226;-74
2023/02/15 01:23:19;;;;;;;;;87.33;75.00;;;;;9.79;50.97;102178.34;6310906;22;45484;-74
2023/02/15 01:25:45;;;;;;;;;94.67;82.33;;;;;9.82;51.11;102180.97;6310687;22;45432;-75
2023/02/15 01:28:10;;;;;;;;;88.67;79.33;;;;;9.78;51.13;102182.69;6310451;22;45350;-74
2023/02/15 01:30:36;;;;;;;;;92.33;83.33;;;;;9.78;50.83;102181.81;6310492;22;45144;-74
2023/02/15 01:33:02;;;;;;;;;95.33;81.00;;;;;9.76;50.89;102181.81;6310999;22;45224;-74
2023/02/15 01:35:28;;;;;;;;;97.00;85.33;;;;;9.72;51.03;102172.09;6310692;22;45396;-74
2023/02/15 01:37:54;;;;;;;;;96.33;85.67;;;;;9.69;51.03;102175.56;6334725;22;48037;-74
2023/02/15 01:40:20;;;;;;;;;86.00;74.00;;;;;9.68;51.17;102181.69;6334914;22;45141;-74
2023/02/15 01:42:45;;;;;;;;;100.00;88.00;;;;;9.67;51.20;102182.56;6310628;22;45427;-75
2023/02/15 01:45:27;;;;;;;;;97.00;85.67;;;;;9.65;51.11;102188.63;6310321;22;45393;-74
2023/02/15 01:48:01;;;;;;;;;85.00;74.00;;;;;9.60;51.04;102186.84;6309513;22;46477;-75
2023/02/15 01:50:36;;;;;;;;;86.33;77.33;;;;;9.56;51.23;102185.03;6310849;22;45102;-75
2023/02/15 01:53:19;;;;;;;;;87.00;74.00;;;;;9.53;51.29;102184.13;6308986;22;45370;-75
2023/02/15 01:55:59;;;;;;;;;87.67;78.33;;;;;9.51;51.09;102176.22;6310685;22;45252;-75
2023/02/15 01:58:27;;;;;;;;;87.00;77.00;;;;;9.49;51.33;102183.19;6334457;22;48343;-75
2023/02/15 02:00:54;;;;;;;;;83.00;73.67;;;;;9.47;51.00;102176.16;6310016;22;45312;-75
2023/02/15 02:03:38;;;;;;;;;89.00;74.00;;;;;9.43;51.16;102162.13;6308683;22;45263;-74
2023/02/15 02:06:04;;;;;;;;;91.00;82.00;;;;;9.41;51.05;102162.09;6310498;22;45299;-75
2023/02/15 02:08:31;;;;;;;;;85.67;71.67;;;;;9.39;51.02;102169.06;6309668;22;45844;-75
2023/02/15 02:11:00;;;;;;;;;89.67;77.67;;;;;9.37;51.27;102167.28;6308271;22;45160;-74
2023/02/15 02:13:28;;;;;;;;;86.00;75.00;;;;;9.36;51.37;102169.03;6309358;22;45414;-75
2023/02/15 02:16:08;;;;;;;;;84.00;70.00;;;;;9.34;51.05;102162.88;6310000;22;45325;-75
2023/02/15 02:18:55;;;;;;;;;88.67;77.33;;;;;9.32;51.16;102169.88;6310311;22;45215;-75
2023/02/15 02:21:53;;;;;;;;;85.33;75.33;;;;;9.30;51.16;102157.59;6334236;22;45314;-73
2023/02/15 02:24:52;;;;;;;;;86.67;72.00;;;;;9.26;51.17;102175.03;6302313;22;45310;-73
2023/02/15 02:27:26;;;;;;;;;94.33;81.33;;;;;9.19;51.50;102165.28;6308911;22;45175;-73
2023/02/15 02:30:03;;;;;;;;;84.33;70.00;;;;;9.23;51.40;102172.34;6310316;22;46283;-74
2023/02/15 02:32:59;;;;;;;;;91.33;80.33;;;;;9.19;51.46;102165.28;6310399;22;45097;-74
2023/02/15 02:35:41;;;;;;;;;84.00;72.33;;;;;9.17;51.34;102167.00;6308293;22;45259;-74
2023/02/15 02:38:33;;;;;;;;;90.67;80.33;;;;;9.15;51.51;102169.59;6309922;22;45317;-74
2023/02/15 02:41:29;;;;;;;;;88.00;74.00;;;;;9.13;51.44;102165.19;6310108;22;45374;-74
2023/02/15 02:44:05;;;;;;;;;86.33;76.33;;;;;9.07;51.49;102152.91;6245828;22;45297;-74
2023/02/15 02:46:48;;;;;;;;;86.00;73.67;;;;;9.08;51.62;102158.16;6308294;22;45212;-74
2023/02/15 02:49:13;;;;;;;;;87.33;75.67;;;;;9.05;51.24;102146.75;6310540;22;45278;-74
2023/02/15 02:51:38;;;;;;;;;84.00;74.33;;;;;9.03;51.31;102138.84;6308487;22;46989;-74
2023/02/15 02:54:06;;;;;;;;;87.33;76.33;;;;;9.01;51.33;102140.56;6310568;22;45264;-74
2023/02/15 02:56:44;;;;;;;;;87.67;78.33;;;;;8.96;51.50;102137.00;6334814;22;45220;-74
2023/02/15 02:59:17;;;;;;;;;85.00;68.00;;;;;8.93;51.43;102139.56;6307327;22;45185;-74
2023/02/15 03:01:57;;;;;;;;;79.00;58.67;;;;;8.91;51.49;102134.28;6310327;22;45266;-73
2023/02/15 03:04:35;;;;;;;;;83.33;66.67;;;;;8.91;51.47;102136.03;6310273;22;45262;-74
2023/02/15 03:07:05;;;;;;;;;84.33;74.00;;;;;8.88;51.38;102138.59;6308376;22;45201;-73
2023/02/15 03:09:42;;;;;;;;;84.00;72.00;;;;;8.85;51.80;102135.94;6309898;22;45727;-73
2023/02/15 03:12:15;;;;;;;;;86.33;72.67;;;;;8.83;51.37;102148.13;6308094;22;46196;-74
2023/02/15 03:14:44;;;;;;;;;87.33;75.00;;;;;8.81;51.69;102152.50;6334233;22;45318;-73
2023/02/15 03:17:13;;;;;;;;;79.33;65.33;;;;;8.77;51.53;102156.81;6309763;22;45176;-73
2023/02/15 03:19:40;;;;;;;;;78.00;62.67;;;;;8.74;51.81;102148.88;6308729;22;45120;-74
2023/02/15 03:22:13;;;;;;;;;87.33;73.67;;;;;8.70;51.57;102149.69;6309823;22;46225;-74
2023/02/15 03:24:48;;;;;;;;;86.67;75.33;;;;;8.70;51.44;102157.56;6334356;22;45274;-74
2023/02/15 03:27:19;;;;;;;;;82.33;69.67;;;;;8.66;51.41;102154.00;6310320;22;45284;-74
2023/02/15 03:29:48;;;;;;;;;89.00;78.67;;;;;8.60;51.48;102148.66;6310031;22;45189;-75
2023/02/15 03:32:15;;;;;;;;;109.67;91.67;;;;;8.61;51.59;102148.69;6309968;22;45168;-75
2023/02/15 03:34:41;;;;;;;;;92.67;81.67;;;;;8.56;51.36;102137.25;6307964;22;45398;-75
2023/02/15 03:37:22;;;;;;;;;91.33;77.33;;;;;8.57;51.51;102143.38;6310090;22;45301;-75
2023/02/15 03:39:56;;;;;;;;;186.00;151.50;;;;;8.50;51.98;102131.91;6310280;22;45128;-75
2023/02/15 03:42:33;;;;;;;;;117.50;97.75;;;;;8.50;51.46;102142.38;6309877;22;46297;-75
2023/02/15 03:45:09;;;;;;;;;114.33;93.33;;;;;8.49;51.70;102145.88;6310132;22;45205;-75
2023/02/15 03:47:43;;;;;;;;;96.67;84.67;;;;;8.43;51.47;102143.97;6310228;22;45255;-75
2023/02/15 03:53:17;;;;;;;;;87.00;75.33;;;;;8.38;51.84;102148.25;6309769;22;45385;-74
2023/02/15 03:55:47;;;;;;;;;86.00;69.33;;;;;8.35;51.61;102150.84;6307777;22;45357;-74
2023/02/15 04:03:59;;;;;;;;;89.00;75.00;;;;;8.23;52.02;102141.03;6309728;22;45799;-74
2023/02/15 04:06:24;;;;;;;;;85.33;67.00;;;;;8.24;51.54;102142.78;6309882;22;45309;-74
2023/02/15 04:11:34;;;;;;;;;90.00;75.00;;;;;8.21;51.51;102150.56;6309689;22;45173;-74
2023/02/15 04:16:02;;;;;;;;;85.33;72.33;;;;;8.16;51.75;102151.34;6307733;22;46648;-74
2023/02/15 04:16:44;;;;;;;;;89.00;78.00;;;;;8.13;51.84;102152.19;6308887;22;45231;-74
2023/02/15 04:27:22;;;;;;;;;84.33;67.33;;;;;8.05;51.68;102149.44;6309281;22;45271;-74
2023/02/15 04:29:49;;;;;;;;;84.33;69.67;;;;;8.04;51.62;102142.44;6309696;22;45307;-74
2023/02/15 04:32:15;;;;;;;;;87.33;73.67;;;;;8.01;51.83;102139.72;6307222;22;45276;-74
2023/02/15 04:34:40;;;;;;;;;85.67;72.67;;;;;8.01;51.85;102131.00;6309872;22;45841;-75
2023/02/15 04:37:06;;;;;;;;;88.33;78.00;;;;;7.99;52.03;102138.84;6333630;22;45110;-74
2023/02/15 04:39:32;;;;;;;;;87.00;73.00;;;;;7.89;51.86;102126.44;6309910;22;45270;-75
2023/02/15 04:41:57;;;;;;;;;88.67;71.67;;;;;7.94;51.99;102145.72;6309734;22;45396;-74
2023/02/15 04:44:23;;;;;;;;;88.67;75.00;;;;;7.93;51.77;102147.44;6309343;22;45667;-74
2023/02/15 04:46:48;;;;;;;;;90.67;80.00;;;;;7.93;51.92;102154.44;6307893;22;45172;-74
2023/02/15 04:49:14;;;;;;;;;88.33;79.00;;;;;7.86;51.83;102145.59;6309782;22;45864;-75
2023/02/15 04:51:39;;;;;;;;;88.00;74.33;;;;;7.85;51.77;102149.06;6309511;22;45164;-74
2023/02/15 04:54:05;;;;;;;;;87.33;74.00;;;;;7.88;51.77;102150.84;6309371;22;45243;-74
2023/02/15 04:56:32;;;;;;;;;86.67;77.33;;;;;7.86;51.82;102152.53;6308622;22;45357;-74
2023/02/15 04:58:58;;;;;;;;;87.00;73.67;;;;;7.83;52.01;102137.66;6307469;22;45458;-74
2023/02/15 05:01:27;;;;;;;;;88.00;76.33;;;;;7.82;51.96;102146.34;6281016;22;45185;-74
2023/02/15 05:03:52;;;;;;;;;93.33;81.67;;;;;7.80;52.05;102138.47;6308898;22;46525;-74
2023/02/15 05:06:18;;;;;;;;;87.33;75.00;;;;;7.79;52.06;102136.72;6307311;22;46077;-74
2023/02/15 05:08:46;;;;;;;;;81.67;65.33;;;;;7.77;51.69;102141.06;6307074;22;45275;-75
2023/02/15 05:11:12;;;;;;;;;82.67;69.33;;;;;7.69;51.99;102126.06;6307259;22;45476;-74
2023/02/15 05:13:37;;;;;;;;;85.67;66.00;;;;;7.73;51.93;102138.34;6309292;22;46198;-74
2023/02/15 05:16:02;;;;;;;;;87.67;72.33;;;;;7.75;52.03;102139.25;6309162;22;45318;-74
2023/02/15 05:18:28;;;;;;;;;80.00;64.67;;;;;7.69;51.85;102128.66;6309224;22;45327;-74
2023/02/15 05:20:53;;;;;;;;;83.67;67.33;;;;;7.71;51.67;102137.41;6309277;22;45235;-75
2023/02/15 05:23:18;;;;;;;;;85.67;71.00;;;;;7.67;52.20;102130.34;6309295;22;45161;-74
2023/02/15 05:28:40;;;;;;;;;79.67;63.67;;;;;7.65;52.02;102130.34;6309014;22;45172;-75
2023/02/15 05:31:18;;;;;;;;;81.67;62.67;;;;;7.64;52.09;102132.03;6306788;22;45216;-75
2023/02/15 05:33:45;;;;;;;;;79.67;62.00;;;;;7.60;52.06;102130.22;6307129;22;45178;-75
2023/02/15 05:36:11;;;;;;;;;89.00;74.67;;;;;7.60;51.96;102135.47;6307000;22;45189;-76
2023/02/15 05:38:37;;;;;;;;;82.33;68.33;;;;;7.57;52.14;102135.41;6308621;22;45211;-75
2023/02/15 05:41:07;;;;;;;;;93.33;78.00;;;;;7.58;52.07;102133.66;6308286;22;45208;-75
2023/02/15 05:43:33;;;;;;;;;86.33;73.33;;;;;7.55;52.19;102128.38;6308596;22;46066;-75
2023/02/15 05:45:59;;;;;;;;;85.33;70.00;;;;;7.54;52.08;102124.00;6310165;22;45226;-75
2023/02/15 05:48:27;;;;;;;;;85.33;68.33;;;;;7.53;51.91;102120.47;6308635;22;45152;-75
2023/02/15 05:51:21;;;;;;;;;84.00;72.00;;;;;7.53;52.19;102122.22;6308694;22;45584;-75
2023/02/15 05:53:46;;;;;;;;;82.67;65.33;;;;;7.49;52.13;102124.75;6310487;22;46480;-75
2023/02/15 05:56:12;;;;;;;;;84.00;66.00;;;;;7.44;52.02;102113.31;6334886;22;45258;-75
2023/02/15 05:58:39;;;;;;;;;81.33;62.00;;;;;7.43;52.14;102122.06;6310588;22;45224;-75
2023/02/15 06:01:09;;;;;;;;;82.67;64.67;;;;;7.44;52.12;102118.56;6310007;22;45357;-75
2023/02/15 06:03:35;;;;;;;;;82.67;66.00;;;;;7.43;51.99;102119.44;6310524;22;46069;-75
2023/02/15 06:06:04;;;;;;;;;78.00;63.67;;;;;7.41;52.21;102120.22;6310798;22;45188;-75
2023/02/15 06:08:31;;;;;;;;;80.33;62.00;;;;;7.31;52.44;102096.50;6310153;22;45246;-75
2023/02/15 06:10:56;;;;;;;;;80.00;65.33;;;;;7.36;52.20;102103.56;6310369;22;45380;-75
2023/02/15 06:13:22;;;;;;;;;82.67;63.67;;;;;7.34;52.36;102113.13;6310471;22;45852;-76
2023/02/15 06:15:47;;;;;;;;;79.67;63.67;;;;;7.32;52.36;102118.34;6310304;22;45334;-75
2023/02/15 06:18:13;;;;;;;;;86.67;68.00;;;;;7.30;52.45;102115.66;6334930;22;45159;-75
2023/02/15 06:20:38;;;;;;;;;84.00;63.67;;;;;7.28;52.21;102111.25;6310379;22;45255;-75
2023/02/15 06:23:04;;;;;;;;;83.67;62.67;;;;;7.24;52.25;102104.19;6308474;22;46150;-75
2023/02/15 06:25:29;;;;;;;;;82.00;64.67;;;;;7.24;52.15;102115.53;6310689;22;45207;-74
2023/02/15 06:27:55;;;;;;;;;45.67;30.67;;;;;7.22;52.20;102116.34;6308234;22;45256;-75
2023/02/15 06:30:20;;;;;;;;;81.67;63.67;;;;;7.17;52.28;102113.66;6310247;22;45176;-75
2023/02/15 06:32:46;;;;;;;;;81.00;62.67;;;;;7.18;52.14;102118.00;6310430;22;45394;-75
2023/02/15 06:35:11;;;;;;;;;82.67;65.33;;;;;7.16;52.47;102119.72;6334454;22;45193;-75
2023/02/15 06:37:37;;;;;;;;;79.67;62.33;;;;;7.14;52.35;102119.69;6310196;22;45303;-74
2023/02/15 06:40:03;;;;;;;;;81.33;62.67;;;;;7.13;52.16;102117.03;6310259;22;45235;-76
2023/02/15 06:42:29;;;;;;;;;81.33;65.00;;;;;7.14;52.41;102127.53;6334591;22;48567;-76
2023/02/15 06:44:55;;;;;;;;;81.67;64.33;;;;;7.13;52.32;102133.63;6310152;22;45630;-76
2023/02/15 06:47:23;;;;;;;;;83.67;63.67;;;;;7.11;52.20;102127.44;6310475;22;45282;-76
2023/02/15 06:49:58;;;;;;;;;84.33;65.33;;;;;7.06;52.24;102125.59;6310251;22;45136;-76
2023/02/15 06:52:28;;;;;;;;;75.00;60.33;;;;;7.10;52.48;102133.53;6308007;22;48025;-76
2023/02/15 06:54:53;;;;;;;;;81.67;64.00;;;;;7.01;52.38;102125.50;6307874;22;45345;-76
2023/02/15 06:57:19;;;;;;;;;85.33;70.00;;;;;7.05;52.39;102134.28;6310137;22;45325;-76
2023/02/15 06:59:47;;;;;;;;;86.33;65.67;;;;;6.97;52.36;102123.66;6308601;22;45257;-76
2023/02/15 07:02:13;;;;;;;;;85.67;62.33;;;;;7.02;52.28;102135.09;6308021;22;45215;-76
2023/02/15 07:04:39;;;;;;;;;78.67;60.33;;;;;6.92;52.53;102126.16;6307886;22;45267;-76
2023/02/15 07:07:08;;;;;;;;;81.00;67.67;;;;;7.02;52.49;102139.44;6309596;22;45191;-76
2023/02/15 07:09:34;;;;;;;;;84.00;66.67;;;;;6.98;52.53;102135.84;6308139;22;45326;-75
2023/02/15 07:14:44;;;;;;;;;83.33;62.00;;;;;6.96;52.54;102159.34;6309478;22;45480;-75
2023/02/15 07:17:09;;;;;;;;;81.67;63.00;;;;;6.94;52.41;102165.38;6308151;22;45321;-75
2023/02/15 07:19:34;;;;;;;;;82.33;65.67;;;;;6.95;52.41;102164.56;6311323;22;45581;-74
2023/02/15 07:22:00;;;;;;;;;79.33;62.67;;;;;6.92;52.65;102162.75;6335168;22;46939;-75
2023/02/15 07:24:31;;;;;;;;;81.00;65.00;;;;;6.93;52.67;102172.38;6310118;22;45243;-74
2023/02/15 07:26:57;;;;;;;;;83.33;65.67;;;;;6.94;52.51;102188.91;6307988;22;45368;-75
2023/02/15 07:29:23;;;;;;;;;85.67;70.00;;;;;6.92;52.74;102181.03;6307771;22;45741;-76
2023/02/15 07:31:51;;;;;;;;;91.33;76.00;;;;;6.92;52.67;102180.19;6310154;22;45407;-75
2023/02/15 07:34:16;;;;;;;;;91.00;76.00;;;;;6.92;52.59;102188.00;6307942;22;45239;-75
2023/02/15 07:36:45;;;;;;;;;82.67;66.67;;;;;6.89;52.84;102175.72;6310520;22;45295;-76
2023/02/15 07:39:11;;;;;;;;;87.33;74.67;;;;;6.86;52.90;102180.03;6309618;22;45305;-76
2023/02/15 07:41:36;;;;;;;;;89.67;69.67;;;;;6.83;52.71;102176.47;6307755;22;47053;-75
2023/02/15 07:44:02;;;;;;;;;80.67;65.00;;;;;6.83;52.67;102175.59;6309936;22;45247;-75
2023/02/15 07:46:27;;;;;;;;;82.00;64.67;;;;;6.87;52.67;102193.13;6308348;22;45406;-76
2023/02/15 07:48:53;;;;;;;;;83.67;66.00;;;;;6.88;52.68;102191.38;6310311;22;45216;-76
2023/02/15 07:51:19;;;;;;;;;87.67;71.67;;;;;6.87;52.78;102182.66;6309948;22;46030;-75
2023/02/15 07:53:47;;;;;;;;;88.00;71.67;;;;;6.86;52.77;102186.13;6310261;22;45287;-75
2023/02/15 07:56:15;;;;;;;;;85.00;66.67;;;;;6.90;52.79;102195.78;6309561;22;45363;-75
2023/02/15 07:58:53;;;;;;;;;87.00;74.67;;;;;6.92;52.99;102188.00;6309708;22;45263;-75
2023/02/15 08:01:35;;;;;;;;;87.00;71.00;;;;;6.94;52.93;102197.66;6309757;22;45239;-75
2023/02/15 08:04:00;;;;;;;;;81.67;68.33;;;;;6.90;52.83;102182.72;6309558;22;45259;-75
2023/02/15 08:06:29;;;;;;;;;85.00;66.67;;;;;6.96;53.00;102188.09;6309699;22;45400;-75
2023/02/15 08:08:57;;;;;;;;;87.67;71.00;;;;;6.92;52.75;102177.56;6308862;22;45299;-75
2023/02/15 08:11:25;;;;;;;;;88.00;73.67;;;;;7.00;52.84;102199.53;6309516;22;45259;-75
2023/02/15 08:13:59;;;;;;;;;90.33;72.67;;;;;7.00;52.97;102189.06;6334114;22;45228;-75
2023/02/15 08:16:38;;;;;;;;;87.33;72.33;;;;;7.05;53.17;102190.06;6309964;22;45424;-75
2023/02/15 08:19:08;;;;;;;;;89.00;76.33;;;;;7.09;53.24;102193.63;6307657;22;45973;-75
2023/02/15 08:21:38;;;;;;;;;82.00;66.67;;;;;7.07;53.09;102182.22;6307518;22;48362;-75
2023/02/15 08:24:06;;;;;;;;;88.00;74.67;;;;;7.14;53.25;102194.63;6310039;22;45242;-75
2023/02/15 08:26:35;;;;;;;;;86.33;68.67;;;;;7.14;53.20;102192.91;6307742;22;45286;-75
2023/02/15 08:29:01;;;;;;;;;87.67;74.00;;;;;7.14;53.22;102192.91;6308658;22;45346;-75
2023/02/15 08:31:28;;;;;;;;;56.67;43.33;;;;;7.16;53.46;102196.41;6309469;22;45433;-75
2023/02/15 08:33:55;;;;;;;;;95.67;83.00;;;;;7.21;53.49;102203.47;6309525;22;45302;-75
2023/02/15 08:36:23;;;;;;;;;94.00;80.67;;;;;7.20;53.40;102210.44;6309901;22;45154;-76
2023/02/15 08:38:49;;;;;;;;;87.67;70.33;;;;;7.21;53.23;102193.91;6309424;22;45167;-75
2023/02/15 08:41:15;;;;;;;;;85.33;71.67;;;;;7.25;53.40;102197.50;6309465;22;45168;-75
2023/02/15 08:43:42;;;;;;;;;84.67;71.33;;;;;7.23;53.39;102192.22;6309429;22;45380;-75
2023/02/15 08:46:12;;;;;;;;;87.67;75.00;;;;;7.28;53.52;102192.31;6308888;22;45437;-75
2023/02/15 08:48:37;;;;;;;;;86.00;73.67;;;;;7.30;53.62;102188.00;6308741;22;45266;-75
2023/02/15 08:51:14;;;;;;;;;87.00;72.33;;;;;7.29;53.53;102183.63;6309110;22;46342;-76
2023/02/15 08:53:42;;;;;;;;;85.67;69.33;;;;;7.34;53.64;102184.59;6309790;22;45173;-75
2023/02/15 08:56:08;;;;;;;;;90.67;75.00;;;;;7.37;53.46;102186.41;6307157;22;45375;-75
2023/02/15 08:58:35;;;;;;;;;88.00;71.33;;;;;7.35;53.47;102173.31;6307418;22;45252;-75
2023/02/15 09:01:11;;;;;;;;;84.67;68.00;;;;;7.39;53.57;102175.13;6306995;22;47198;-75
2023/02/15 09:03:38;;;;;;;;;87.33;71.00;;;;;7.43;53.53;102179.59;6308638;22;45266;-75
2023/02/15 09:06:07;;;;;;;;;84.67;70.33;;;;;7.40;53.57;102165.56;6307570;22;45264;-74
2023/02/15 09:08:36;;;;;;;;;90.00;78.00;;;;;7.47;53.78;102175.28;6308455;22;45595;-74
2023/02/15 09:11:10;;;;;;;;;89.00;79.00;;;;;7.51;53.57;102173.63;6308780;22;46118;-75
2023/02/15 09:13:39;;;;;;;;;90.67;80.33;;;;;7.53;53.42;102164.09;6309178;22;45266;-75
2023/02/15 09:16:09;;;;;;;;;83.67;68.00;;;;;7.57;53.61;102171.13;6308832;22;45367;-74
2023/02/15 09:18:40;;;;;;;;;89.00;75.33;;;;;7.61;53.80;102176.47;6307401;22;45341;-75
2023/02/15 09:21:08;;;;;;;;;91.00;74.67;;;;;7.63;53.77;102182.66;6310390;22;46225;-75
2023/02/15 09:23:35;;;;;;;;;85.67;74.67;;;;;7.69;53.68;102178.38;6308677;22;45291;-74
2023/02/15 09:26:09;;;;;;;;;87.00;73.67;;;;;7.72;53.66;102170.59;6308844;22;45235;-75
2023/02/15 09:28:35;;;;;;;;;85.67;70.33;;;;;7.78;53.92;102171.56;6310388;22;45301;-75
2023/02/15 09:31:14;;;;;;;;;89.67;77.67;;;;;7.84;53.64;102183.06;6310426;22;45805;-74
2023/02/15 09:33:42;;;;;;;;;92.67;75.67;;;;;7.86;53.83;102170.84;6308433;22;45169;-75
2023/02/15 09:36:31;;;;;;;;;85.67;72.33;;;;;7.88;53.96;102177.88;6309573;22;45192;-75
2023/02/15 09:39:13;;;;;;;;;87.33;74.67;;;;;7.95;54.15;102186.75;6310582;22;45263;-75
2023/02/15 09:41:51;;;;;;;;;80.00;65.67;;;;;7.98;54.27;102190.31;6310606;22;46146;-75
2023/02/15 09:44:39;;;;;;;;;82.00;68.33;;;;;8.01;53.90;102194.72;6310556;22;45166;-75
2023/02/15 09:47:23;;;;;;;;;81.33;69.67;;;;;8.08;54.06;102208.81;6334521;22;45355;-75
2023/02/15 09:50:10;;;;;;;;;87.33;74.33;;;;;8.13;54.13;102207.19;6310469;22;45142;-74
2023/02/15 09:52:56;;;;;;;;;91.00;82.67;;;;;8.17;53.73;102210.75;6334795;22;47944;-75
2023/02/15 09:55:58;;;;;;;;;86.00;71.33;;;;;8.19;54.18;102201.16;6334459;22;45208;-76
2023/02/15 09:58:47;;;;;;;;;89.00;78.33;;;;;8.23;54.11;102205.63;6308493;22;45189;-75
2023/02/15 10:01:25;;;;;;;;;68.33;51.33;;;;;8.29;53.88;102210.97;6334691;22;45556;-75
2023/02/15 10:04:08;;;;;;;;;86.00;72.33;;;;;8.32;54.10;102208.41;6310675;22;45424;-75
2023/02/15 10:06:48;;;;;;;;;89.00;78.67;;;;;8.35;53.94;102216.34;6308654;22;45263;-75
2023/02/15 10:09:44;;;;;;;;;96.67;82.67;;;;;8.43;54.06;102227.81;6310205;22;45109;-75
2023/02/15 10:12:47;;;;;;;;;85.00;74.33;;;;;8.49;54.11;102216.63;6310468;22;45437;-75
2023/02/15 10:15:23;;;;;;;;;92.00;79.00;;;;;8.55;53.89;102216.72;6307875;22;46958;-75
2023/02/15 10:18:01;;;;;;;;;93.00;79.67;;;;;8.61;54.23;102215.94;6333998;22;45252;-75
2023/02/15 10:20:55;;;;;;;;;86.67;72.33;;;;;8.66;53.99;102208.16;6334240;22;45334;-74
2023/02/15 10:23:39;;;;;;;;;88.00;75.33;;;;;8.71;54.15;102207.38;6309993;22;45467;-74
2023/02/15 10:26:18;;;;;;;;;84.67;73.00;;;;;8.76;54.35;102210.94;6334510;22;47569;-75
2023/02/15 10:28:59;;;;;;;;;85.33;69.67;;;;;8.82;54.31;102204.03;6309984;22;45537;-74
2023/02/15 10:31:24;;;;;;;;;83.33;66.00;;;;;8.86;54.02;102206.75;6309722;22;45159;-74
2023/02/15 10:34:00;;;;;;;;;84.67;69.67;;;;;8.93;54.09;102215.59;6334067;22;45229;-74
2023/02/15 10:36:59;;;;;;;;;85.33;73.00;;;;;9.00;54.17;102216.59;6310631;22;45273;-74
2023/02/15 10:39:59;;;;;;;;;85.00;70.33;;;;;9.02;53.95;102212.22;6334359;22;45212;-74
2023/02/15 10:42:48;;;;;;;;;85.67;74.33;;;;;9.14;54.21;102216.81;6308372;22;45153;-74
2023/02/15 10:45:24;;;;;;;;;84.00;68.67;;;;;9.16;53.96;102213.34;6309171;22;45287;-75
2023/02/15 10:47:55;;;;;;;;;84.00;76.00;;;;;9.25;54.01;102223.97;6334067;22;48348;-76
2023/02/15 10:50:36;;;;;;;;;85.33;72.33;;;;;9.35;54.03;102213.63;6334293;22;45470;-75
2023/02/15 10:53:20;;;;;;;;;85.67;73.00;;;;;9.44;54.12;102214.59;6310409;22;45392;-75
2023/02/15 10:55:56;;;;;;;;;84.33;72.33;;;;;9.53;54.03;102215.63;6309695;22;45468;-76
2023/02/15 10:58:56;;;;;;;;;83.33;66.33;;;;;9.62;54.11;102207.84;6307429;22;46295;-75
2023/02/15 11:01:58;;;;;;;;;84.67;70.33;;;;;9.67;54.11;102198.31;6310136;22;45447;-76
2023/02/15 11:04:41;;;;;;;;;82.33;70.67;;;;;9.80;54.08;102195.81;6309955;22;45157;-76
2023/02/15 11:07:33;;;;;;;;;81.33;72.33;;;;;9.91;53.93;102200.34;6333955;22;45434;-76
2023/02/15 11:10:10;;;;;;;;;86.67;78.00;;;;;9.99;54.08;102203.06;6309773;22;45259;-74
2023/02/15 11:12:43;;;;;;;;;86.00;79.67;;;;;10.12;53.95;102205.84;6310212;22;45463;-75
2023/02/15 11:15:31;;;;;;;;;82.67;73.67;;;;;10.24;53.99;102208.59;6281825;22;45253;-75
2023/02/15 11:18:05;;;;;;;;;45.67;40.00;;;;;10.36;54.24;102206.16;6281859;22;45366;-75
2023/02/15 11:20:41;;;;;;;;;82.67;76.67;;;;;10.50;53.87;102210.63;6309832;22;45425;-75
2023/02/15 11:23:16;;;;;;;;;83.33;68.33;;;;;10.58;54.08;102198.44;6310131;22;45195;-75
2023/02/15 11:25:44;;;;;;;;;84.33;74.00;;;;;10.72;53.93;102203.84;6309995;22;45176;-76
2023/02/15 11:28:30;;;;;;;;;81.67;71.67;;;;;10.82;53.97;102199.53;6282188;22;45439;-75
2023/02/15 11:30:58;;;;;;;;;82.00;72.67;;;;;10.89;54.06;102199.59;6281624;22;46986;-75
2023/02/15 11:33:29;;;;;;;;;83.67;73.33;;;;;11.01;54.06;102201.41;6310064;22;45365;-76
2023/02/15 11:36:11;;;;;;;;;87.00;78.00;;;;;11.11;53.96;102201.50;6310458;22;45217;-76
2023/02/15 11:38:43;;;;;;;;;85.00;74.67;;;;;11.22;53.85;102194.56;6281938;22;45488;-77
2023/02/15 11:41:18;;;;;;;;;85.33;74.67;;;;;11.29;53.84;102183.19;6309792;22;45401;-77
2023/02/15 11:44:05;;;;;;;;;81.67;73.00;;;;;11.44;53.63;102194.69;6309854;22;45297;-77
2023/02/15 11:46:31;;;;;;;;;89.00;75.00;;;;;11.53;53.81;102184.19;6310392;22;45275;-77
2023/02/15 11:48:58;;;;;;;;;80.00;64.33;;;;;11.60;53.67;102185.97;6309593;22;45279;-77
2023/02/15 11:51:24;;;;;;;;;81.00;71.00;;;;;11.67;53.66;102177.25;6310121;22;45299;-76
2023/02/15 11:53:50;;;;;;;;;80.33;71.33;;;;;11.78;53.67;102179.91;6310074;22;45105;-77
2023/02/15 11:56:17;;;;;;;;;80.33;67.33;;;;;11.90;53.73;102186.09;6310048;22;45212;-77
2023/02/15 11:58:54;;;;;;;;;82.33;70.33;;;;;12.02;53.59;102181.78;6309416;22;45256;-76
2023/02/15 12:01:23;;;;;;;;;79.00;69.33;;;;;12.11;53.90;102186.22;6281621;22;48216;-76